首页
METAR-TAF:

METAR-TAF

机场 :

雷焦卡拉布里亚, 意大利

纬度: 38-04N, 经度: 015-39E, 海拔: 11米

当前天气观测

该预报发布于1小时和7分钟前的13:50 UTC
风速20节,风向
温度 16°C
湿度 51%
气压 1028 hPa
能见度10公里或以上
少量云层高于3000英尺

METAR: LICR 231350Z 36020KT 9999 FEW030 16/06 Q1028

时间: 15:57 (14:57 UTC)

预报

该预报发布于3小时和57分钟前的11:00 UTC
预报有效从23日的 12点(UTC)到 24日的 12点(UTC)
风速18节,风向
能见度10公里或以上
少量云层高于4000英尺
短暂存在
从 23日的 12点(UTC)到 23日的 18点(UTC)
风速18节,风向,有时为28节阵风

TAF: LICR 231100Z 2312/2412 35018KT 9999 FEW040 TEMPO 2312/2318 35018G28KT

超过4000个机场的气象观测和天气预报(METAR&TAF报告)。

可查询的气象台以黄色和红色小点在地图上表示。

将鼠标移到小点上方,可查看气象台名称。

然后点击查看天气观测和预报。

如需切换地图:点击带黑十字的绿色按钮放大地图;点击带横线的绿色按钮缩小地图;或者点击绿色箭头查看邻近地区的地图。


METAR-TAF: